<?xml version="1.0" encoding="utf-8"?>
<gpx xmlns:xsi="http://www.w3.org/2001/XMLSchema-instance" xmlns:xsd="http://www.w3.org/2001/XMLSchema" version="1.1" creator="Shapelink.com" xmlns="http://www.topografix.com/GPX/1/1" xmlns:gpxtpx="http://www.garmin.com/xmlschemas/TrackPointExtension/v1">
  <metadata>
    <name>Övrigt 2.04 km, 2020-06-15</name>
    <desc></desc>
    <author><name>Marian Moron</name></author> 
    <time>2020-06-15T20:53:58Z</time>
  </metadata>
  <trk>
    <name>Övrigt 2.04 km, 2020-06-15</name>
    <trkseg>
      <trkpt lat="51.229797039423" lon="4.457919633787">
        <ele>0</ele>
        <time>2020-06-15T20:53:58Z</time>
      </trkpt>
      <trkpt lat="51.229890162332" lon="4.457744954991">
        <ele>5.4</ele>
        <time>2020-06-15T20:54:04Z</time>
      </trkpt>
      <trkpt lat="51.22986099332" lon="4.457477991476">
        <ele>3</ele>
        <time>2020-06-15T20:54:28Z</time>
      </trkpt>
      <trkpt lat="51.229849510117" lon="4.456766116709">
        <ele>4.4</ele>
        <time>2020-06-15T20:54:54Z</time>
      </trkpt>
      <trkpt lat="51.229869039944" lon="4.456583139832">
        <ele>3.6</ele>
        <time>2020-06-15T20:55:03Z</time>
      </trkpt>
      <trkpt lat="51.229938693533" lon="4.456422123533">
        <ele>0</ele>
        <time>2020-06-15T20:55:19Z</time>
      </trkpt>
      <trkpt lat="51.230392238142" lon="4.456448777975">
        <ele>0</ele>
        <time>2020-06-15T20:55:50Z</time>
      </trkpt>
      <trkpt lat="51.23043012433" lon="4.456438971152">
        <ele>0</ele>
        <time>2020-06-15T20:55:54Z</time>
      </trkpt>
      <trkpt lat="51.230477146789" lon="4.456330593185">
        <ele>0</ele>
        <time>2020-06-15T20:56:04Z</time>
      </trkpt>
      <trkpt lat="51.230913340865" lon="4.456271836066">
        <ele>1</ele>
        <time>2020-06-15T20:56:40Z</time>
      </trkpt>
      <trkpt lat="51.230925662258" lon="4.456253647343">
        <ele>1.6</ele>
        <time>2020-06-15T20:56:41Z</time>
      </trkpt>
      <trkpt lat="51.230984084101" lon="4.456117692925">
        <ele>3.6</ele>
        <time>2020-06-15T20:57:05Z</time>
      </trkpt>
      <trkpt lat="51.231015348588" lon="4.45597645791">
        <ele>3.6</ele>
        <time>2020-06-15T20:57:11Z</time>
      </trkpt>
      <trkpt lat="51.231123475098" lon="4.455863050803">
        <ele>3</ele>
        <time>2020-06-15T20:57:23Z</time>
      </trkpt>
      <trkpt lat="51.231218358206" lon="4.456056756512">
        <ele>2</ele>
        <time>2020-06-15T20:57:51Z</time>
      </trkpt>
      <trkpt lat="51.231275355126" lon="4.456166140307">
        <ele>2</ele>
        <time>2020-06-15T20:57:58Z</time>
      </trkpt>
      <trkpt lat="51.231293879125" lon="4.456176282406">
        <ele>2</ele>
        <time>2020-06-15T20:58:00Z</time>
      </trkpt>
      <trkpt lat="51.231332519684" lon="4.456222131399">
        <ele>1.4</ele>
        <time>2020-06-15T20:58:05Z</time>
      </trkpt>
      <trkpt lat="51.231343080878" lon="4.456219784467">
        <ele>0</ele>
        <time>2020-06-15T20:58:34Z</time>
      </trkpt>
      <trkpt lat="51.231205617718" lon="4.45608877537">
        <ele>0</ele>
        <time>2020-06-15T20:58:48Z</time>
      </trkpt>
      <trkpt lat="51.231188602461" lon="4.455935638057">
        <ele>0.2</ele>
        <time>2020-06-15T20:58:56Z</time>
      </trkpt>
      <trkpt lat="51.230776967352" lon="4.455626681223">
        <ele>5</ele>
        <time>2020-06-15T20:59:31Z</time>
      </trkpt>
      <trkpt lat="51.230664901349" lon="4.455606983758">
        <ele>8.8</ele>
        <time>2020-06-15T20:59:44Z</time>
      </trkpt>
      <trkpt lat="51.230321578725" lon="4.455285286436">
        <ele>0</ele>
        <time>2020-06-15T21:00:17Z</time>
      </trkpt>
      <trkpt lat="51.230189899076" lon="4.455107003423">
        <ele>1.4</ele>
        <time>2020-06-15T21:00:37Z</time>
      </trkpt>
      <trkpt lat="51.23007892272" lon="4.455034080893">
        <ele>5.4</ele>
        <time>2020-06-15T21:00:46Z</time>
      </trkpt>
      <trkpt lat="51.230074312675" lon="4.454976832516">
        <ele>7.4</ele>
        <time>2020-06-15T21:01:34Z</time>
      </trkpt>
      <trkpt lat="51.230220493011" lon="4.454585816881">
        <ele>4.4</ele>
        <time>2020-06-15T21:02:04Z</time>
      </trkpt>
      <trkpt lat="51.230241866856" lon="4.454454137232">
        <ele>3.2</ele>
        <time>2020-06-15T21:02:30Z</time>
      </trkpt>
      <trkpt lat="51.230176488036" lon="4.453905374239">
        <ele>7</ele>
        <time>2020-06-15T21:02:57Z</time>
      </trkpt>
      <trkpt lat="51.230091663208" lon="4.453204647399">
        <ele>3.4</ele>
        <time>2020-06-15T21:03:43Z</time>
      </trkpt>
      <trkpt lat="51.229927713244" lon="4.452539627453">
        <ele>0</ele>
        <time>2020-06-15T21:04:20Z</time>
      </trkpt>
      <trkpt lat="51.229837356362" lon="4.452143498859">
        <ele>0</ele>
        <time>2020-06-15T21:04:42Z</time>
      </trkpt>
      <trkpt lat="51.229796704147" lon="4.451910062944">
        <ele>0</ele>
        <time>2020-06-15T21:04:54Z</time>
      </trkpt>
      <trkpt lat="51.229786729686" lon="4.451864884503">
        <ele>0</ele>
        <time>2020-06-15T21:04:56Z</time>
      </trkpt>
      <trkpt lat="51.229739623408" lon="4.451754327242">
        <ele>0</ele>
        <time>2020-06-15T21:05:05Z</time>
      </trkpt>
      <trkpt lat="51.229799637812" lon="4.451555927669">
        <ele>0</ele>
        <time>2020-06-15T21:05:22Z</time>
      </trkpt>
      <trkpt lat="51.229898879508" lon="4.451529357046">
        <ele>2.2</ele>
        <time>2020-06-15T21:05:43Z</time>
      </trkpt>
      <trkpt lat="51.230329373892" lon="4.451317294976">
        <ele>8.8</ele>
        <time>2020-06-15T21:06:23Z</time>
      </trkpt>
      <trkpt lat="51.230500113195" lon="4.451313439302">
        <ele>0</ele>
        <time>2020-06-15T21:06:45Z</time>
      </trkpt>
      <trkpt lat="51.230517044633" lon="4.450894260483">
        <ele>0</ele>
        <time>2020-06-15T21:07:08Z</time>
      </trkpt>
      <trkpt lat="51.230506315801" lon="4.450715474556">
        <ele>0</ele>
        <time>2020-06-15T21:07:20Z</time>
      </trkpt>
      <trkpt lat="51.230528360198" lon="4.450671301943">
        <ele>0</ele>
        <time>2020-06-15T21:07:23Z</time>
      </trkpt>
      <trkpt lat="51.230981737169" lon="4.450561582872">
        <ele>4</ele>
        <time>2020-06-15T21:07:57Z</time>
      </trkpt>
      <trkpt lat="51.231094222267" lon="4.450520092467">
        <ele>3.2</ele>
        <time>2020-06-15T21:08:07Z</time>
      </trkpt>
      <trkpt lat="51.231186674624" lon="4.45062042381">
        <ele>0</ele>
        <time>2020-06-15T21:08:19Z</time>
      </trkpt>
      <trkpt lat="51.231215256903" lon="4.450603073277">
        <ele>0</ele>
        <time>2020-06-15T21:08:41Z</time>
      </trkpt>
      <trkpt lat="51.231110902248" lon="4.450592176807">
        <ele>1.4</ele>
        <time>2020-06-15T21:08:55Z</time>
      </trkpt>
      <trkpt lat="51.231074776259" lon="4.450606677494">
        <ele>2</ele>
        <time>2020-06-15T21:08:58Z</time>
      </trkpt>
      <trkpt lat="51.230874616487" lon="4.450632242289">
        <ele>8.6</ele>
        <time>2020-06-15T21:09:22Z</time>
      </trkpt>
      <trkpt lat="51.230490054915" lon="4.450899876356">
        <ele>1.2</ele>
        <time>2020-06-15T21:09:58Z</time>
      </trkpt>
      <trkpt lat="51.230579825064" lon="4.451176562875">
        <ele>0</ele>
        <time>2020-06-15T21:10:46Z</time>
      </trkpt>
      <trkpt lat="51.230711085618" lon="4.451867566711">
        <ele>0</ele>
        <time>2020-06-15T21:11:21Z</time>
      </trkpt>
      <trkpt lat="51.230756599335" lon="4.452216589027">
        <ele>0</ele>
        <time>2020-06-15T21:11:44Z</time>
      </trkpt>
      <trkpt lat="51.230855589574" lon="4.452907341406">
        <ele>8.6</ele>
        <time>2020-06-15T21:12:23Z</time>
      </trkpt>
      <trkpt lat="51.230978132952" lon="4.453609325531">
        <ele>12.2</ele>
        <time>2020-06-15T21:12:57Z</time>
      </trkpt>
      <trkpt lat="51.231049882016" lon="4.454174433229">
        <ele>3.6</ele>
        <time>2020-06-15T21:13:30Z</time>
      </trkpt>
      <trkpt lat="51.231126995496" lon="4.454178121265">
        <ele>5.6</ele>
        <time>2020-06-15T21:13:44Z</time>
      </trkpt>
      <trkpt lat="51.231554053301" lon="4.453921048392">
        <ele>2.4</ele>
        <time>2020-06-15T21:14:21Z</time>
      </trkpt>
      <trkpt lat="51.231724624966" lon="4.453845862749">
        <ele>4.6</ele>
        <time>2020-06-15T21:14:34Z</time>
      </trkpt>
      <trkpt lat="51.231801906084" lon="4.454154987221">
        <ele>0</ele>
        <time>2020-06-15T21:14:53Z</time>
      </trkpt>
      <trkpt lat="51.231800481161" lon="4.454271747088">
        <ele>0</ele>
        <time>2020-06-15T21:15:02Z</time>
      </trkpt>
      <trkpt lat="51.232005753892" lon="4.454935761206">
        <ele>5.2</ele>
        <time>2020-06-15T21:15:43Z</time>
      </trkpt>
      <trkpt lat="51.232078089689" lon="4.455642774471">
        <ele>1.2</ele>
        <time>2020-06-15T21:16:16Z</time>
      </trkpt>
      <trkpt lat="51.232205243112" lon="4.456322127466">
        <ele>0</ele>
        <time>2020-06-15T21:16:52Z</time>
      </trkpt>
      <trkpt lat="51.232244470404" lon="4.456714735662">
        <ele>0</ele>
        <time>2020-06-15T21:17:13Z</time>
      </trkpt>
      <trkpt lat="51.232182695801" lon="4.456780030663">
        <ele>0</ele>
        <time>2020-06-15T21:17:29Z</time>
      </trkpt>
      <trkpt lat="51.232156125178" lon="4.456752538031">
        <ele>0</ele>
        <time>2020-06-15T21:17:32Z</time>
      </trkpt>
      <trkpt lat="51.232081610087" lon="4.456797213558">
        <ele>0</ele>
        <time>2020-06-15T21:17:43Z</time>
      </trkpt>
      <trkpt lat="51.231957893243" lon="4.456855803039">
        <ele>0.8</ele>
        <time>2020-06-15T21:18:00Z</time>
      </trkpt>
      <trkpt lat="51.231518597864" lon="4.456734349308">
        <ele>0.4</ele>
        <time>2020-06-15T21:18:32Z</time>
      </trkpt>
      <trkpt lat="51.231272421461" lon="4.456528322206">
        <ele>1.4</ele>
        <time>2020-06-15T21:18:59Z</time>
      </trkpt>
      <trkpt lat="51.231227494477" lon="4.457244052647">
        <ele>4.2</ele>
        <time>2020-06-15T21:19:35Z</time>
      </trkpt>
      <trkpt lat="51.23124149225" lon="4.457287638527">
        <ele>5.8</ele>
        <time>2020-06-15T21:19:38Z</time>
      </trkpt>
      <trkpt lat="51.231117021035" lon="4.45764361782">
        <ele>7.6</ele>
        <time>2020-06-15T21:20:04Z</time>
      </trkpt>
      <trkpt lat="51.230665488082" lon="4.457727269182">
        <ele>0.8</ele>
        <time>2020-06-15T21:20:43Z</time>
      </trkpt>
      <trkpt lat="51.230206159962" lon="4.457763646628">
        <ele>6.8</ele>
        <time>2020-06-15T21:21:20Z</time>
      </trkpt>
      <trkpt lat="51.229772480456" lon="4.457905468376">
        <ele>3.4</ele>
        <time>2020-06-15T21:21:57Z</time>
      </trkpt>
      <trkpt lat="51.2295441575" lon="4.458023401709">
        <ele>5.4</ele>
        <time>2020-06-15T21:22:29Z</time>
      </trkpt>
    </trkseg>
  </trk>
</gpx>